Skip Navigation Links
NOAA logo - Click to go to the NOAA homepage
NOAA's National Weather Service
Alaska Aviation Weather Unit
  NWS logo - Click to go to the NWS homepage
Left Navbar Graphic     10 AKDT = 18 GMT

   
NOAA is celebrating 200 years of science, service, and stewardship. Visit the NOAA 200th celebration Web site to learn more.
USA.gov is the U.S. Government's official Web portal to all Federal, state and local government Web resources and services.
Facebook
NWS on Facebook

Important Change Regarding the AAWU Web Presence

 

Over the last several months, the AAWU has been working to navigate its webpages to a nationally supported server. Security, as well as other needs, have necessitated the change.  We have been given an extension for the site changeover while we diligently work at addressing feedback received. As of July 14, 2017, aawu.arh.noaa.gov will be discontinued. The new AAWU web address is weather.gov/aawu. It is now live and will run in-parallel with the old site until it is discontinued on July 14, 2017. Please continue to send any feedback or questions regarding the new webpages to nws.ar.aawu.webauthors@noaa.gov.  Thank you for your patience during this time of transition.
AAWU Home :: Display TAF Add Bookmark
METAR PAFS 261201Z AUTO 00000KT 10SM OVC080 02/02 A2983=

METAR PAFS 261301Z AUTO 00000KT 10SM OVC085 02/02 A2983=

METAR PAFS 261401Z AUTO 00000KT 10SM OVC085 03/02 A2982=

METAR PAFS 261501Z AUTO 00000KT 10SM OVC090 03/02 A2982=

SPECI PAFS 261601Z AUTO 02009KT 10SM BKN016 OVC035 06/05 A2983 RMK
     AO2=

PAFS 261620Z AUTO 03007KT 10SM OVC014 06/05 A2983=

SPECI PAFS 261701Z AUTO 04009KT 10SM SCT015 OVC021 07/06 A2983 RMK
     AO2=

PAFS 261732Z AUTO 04008KT 10SM OVC013 07/06 A2983=

METAR PAFS 261801Z AUTO 03010KT 10SM OVC013 07/06 A2983=


NOAA's National Weather Service
Alaska Aviation Weather Unit
6930 Sand Lake Road
Anchorage, AK 99502-1845
Disclaimer
Credits
Glossary
Privacy Policy
About Us
Career Opportunities
Contact AAWU Internet Services Site last modified: April, 17th 2012